Time;durP1;ratioP1;P1;durP2;ratioP2;P2;SDS_P1;SDS_P2;PMS_P1;PMS_P2;Temp;Humidity;BMP_temperature;BMP_pressure;BME280_temperature;BME280_humidity;BME280_pressure;Samples;Min_cycle;Max_cycle;Signal;HPM_P1;HPM_P2
2022/11/06 00:00:34;;;;;;;13.85;8.23;;;1.90;99.90;;;;;;5004858;28;20045;-46
2022/11/06 00:03:00;;;;;;;14.75;7.18;;;1.90;99.90;;;;;;5001048;28;20445;-49
2022/11/06 00:08:11;;;;;;;11.40;6.93;;;1.80;99.90;;;;;;4995862;28;20088;-49
2022/11/06 00:10:37;;;;;;;11.02;6.63;;;1.80;99.90;;;;;;5007566;28;20577;-49
2022/11/06 00:13:02;;;;;;;13.00;6.53;;;1.80;99.90;;;;;;5003080;28;20054;-50
2022/11/06 00:15:28;;;;;;;13.25;7.75;;;1.80;99.90;;;;;;5004268;28;20064;-53
2022/11/06 00:17:53;;;;;;;16.83;8.02;;;1.80;99.90;;;;;;5002429;28;20520;-50
2022/11/06 00:20:19;;;;;;;18.15;7.82;;;1.80;99.90;;;;;;5004938;28;20038;-53
2022/11/06 00:22:45;;;;;;;11.98;7.30;;;1.80;99.90;;;;;;5006536;28;20030;-52
2022/11/06 00:25:10;;;;;;;13.73;7.47;;;1.80;99.90;;;;;;5008617;28;20490;-48
2022/11/06 00:27:37;;;;;;;14.02;6.95;;;1.80;99.90;;;;;;4995814;28;20034;-51
2022/11/06 00:30:04;;;;;;;18.83;7.60;;;1.80;99.90;;;;;;5008686;28;20084;-55
2022/11/06 00:32:30;;;;;;;15.38;6.43;;;1.80;99.90;;;;;;4989665;28;20113;-50
2022/11/06 00:34:56;;;;;;;14.00;7.10;;;1.80;99.90;;;;;;5000502;28;20117;-48
2022/11/06 00:37:21;;;;;;;12.95;7.20;;;1.70;99.90;;;;;;4973351;28;20065;-51
2022/11/06 00:39:47;;;;;;;13.82;6.40;;;1.70;99.90;;;;;;5001180;28;20537;-49
2022/11/06 00:42:12;;;;;;;14.50;7.15;;;1.70;99.90;;;;;;4993025;28;20820;-47
2022/11/06 00:44:38;;;;;;;19.05;8.50;;;1.70;99.90;;;;;;5009116;28;20049;-50
2022/11/06 00:47:04;;;;;;;15.85;6.63;;;1.60;99.90;;;;;;4999249;28;20038;-49
2022/11/06 00:49:29;;;;;;;17.15;6.38;;;1.60;99.90;;;;;;5001361;28;20117;-52
2022/11/06 00:51:55;;;;;;;10.48;6.80;;;1.50;99.90;;;;;;4997110;28;20136;-51
2022/11/06 00:54:20;;;;;;;15.38;7.55;;;1.50;99.90;;;;;;4993433;28;20034;-49
2022/11/06 00:56:46;;;;;;;12.02;6.30;;;1.50;99.90;;;;;;4988385;28;20042;-52
2022/11/06 00:59:13;;;;;;;12.18;6.20;;;1.40;99.90;;;;;;5006112;28;20045;-48
2022/11/06 01:01:43;;;;;;;12.43;6.25;;;1.40;99.90;;;;;;5005883;28;20040;-49
2022/11/06 01:04:15;;;;;;;12.13;6.53;;;1.40;99.90;;;;;;5008747;28;20719;-53
2022/11/06 01:06:44;;;;;;;10.13;6.25;;;1.40;99.90;;;;;;4993209;28;20092;-49
2022/11/06 01:09:15;;;;;;;12.68;6.65;;;1.40;99.90;;;;;;5005670;28;20508;-46
2022/11/06 01:11:49;;;;;;;11.55;7.07;;;1.30;99.90;;;;;;5006244;28;20456;-48
2022/11/06 01:14:17;;;;;;;16.15;6.97;;;1.30;99.90;;;;;;4988186;28;20045;-48
2022/11/06 01:16:43;;;;;;;15.55;7.63;;;1.30;99.90;;;;;;5003263;28;20026;-52
2022/11/06 01:19:11;;;;;;;14.25;6.68;;;1.30;99.90;;;;;;5001729;28;20538;-50
2022/11/06 01:21:39;;;;;;;15.95;7.03;;;1.30;99.90;;;;;;5006240;28;20030;-46
2022/11/06 01:24:11;;;;;;;14.68;5.93;;;1.30;99.90;;;;;;5006621;28;20479;-50
2022/11/06 01:26:37;;;;;;;15.48;6.03;;;1.20;99.90;;;;;;4986315;28;20034;-49
2022/11/06 01:29:05;;;;;;;8.55;5.93;;;1.20;99.90;;;;;;5008118;28;20087;-53
2022/11/06 01:31:32;;;;;;;9.13;5.40;;;1.20;99.90;;;;;;5006101;28;20038;-52
2022/11/06 01:33:59;;;;;;;10.55;4.88;;;1.10;99.90;;;;;;5007970;28;20084;-48
2022/11/06 01:36:26;;;;;;;9.25;5.55;;;1.10;99.90;;;;;;4997741;28;20490;-48
2022/11/06 01:38:53;;;;;;;16.10;6.70;;;1.10;99.90;;;;;;5007410;28;20052;-47
2022/11/06 01:41:24;;;;;;;9.57;5.82;;;1.20;99.90;;;;;;5006108;28;20646;-48
2022/11/06 01:43:56;;;;;;;9.13;5.50;;;1.20;99.90;;;;;;4995168;28;20030;-50
2022/11/06 01:46:26;;;;;;;11.50;5.28;;;1.20;99.90;;;;;;5002346;28;20131;-51
2022/11/06 01:49:05;;;;;;;8.32;5.18;;;1.30;99.90;;;;;;5007648;28;20042;-48
2022/11/06 01:51:36;;;;;;;13.55;7.13;;;1.30;99.90;;;;;;4997188;28;20022;-50
2022/11/06 01:54:05;;;;;;;10.70;5.47;;;1.30;99.90;;;;;;4995483;28;20046;-49
2022/11/06 01:56:31;;;;;;;11.40;6.07;;;1.30;99.90;;;;;;4995909;28;20462;-48
2022/11/06 01:58:56;;;;;;;12.68;5.72;;;1.30;99.90;;;;;;5006899;28;20042;-50
2022/11/06 02:01:22;;;;;;;12.32;6.03;;;1.30;99.90;;;;;;5005178;28;20045;-47
2022/11/06 02:03:58;;;;;;;9.93;4.78;;;1.30;99.90;;;;;;4990758;28;20498;-49
2022/11/06 02:06:24;;;;;;;9.63;6.05;;;1.30;99.90;;;;;;4986720;28;20064;-51
2022/11/06 02:08:50;;;;;;;10.10;6.10;;;1.30;99.90;;;;;;4990991;28;20742;-49
2022/11/06 02:11:16;;;;;;;10.38;5.80;;;1.30;99.90;;;;;;5008417;28;20109;-47
2022/11/06 02:13:52;;;;;;;12.55;5.75;;;1.30;99.90;;;;;;4989012;28;20061;-48
2022/11/06 02:16:44;;;;;;;7.15;4.25;;;1.30;99.90;;;;;;4970960;28;20029;-50
2022/11/06 02:19:34;;;;;;;15.10;5.70;;;1.30;99.90;;;;;;4962365;28;20053;-51
2022/11/06 02:22:33;;;;;;;11.30;5.75;;;1.30;99.90;;;;;;4970804;28;20490;-49
2022/11/06 02:24:58;;;;;;;8.90;5.53;;;1.20;99.90;;;;;;4970966;28;20034;-49
2022/11/06 02:27:26;;;;;;;9.35;4.97;;;1.20;99.90;;;;;;5006556;28;20014;-50
2022/11/06 02:30:02;;;;;;;13.18;5.68;;;1.20;99.90;;;;;;5009864;28;20535;-48
2022/11/06 02:32:36;;;;;;;11.57;5.70;;;1.20;99.90;;;;;;4991437;28;20033;-50
2022/11/06 02:35:09;;;;;;;8.38;5.32;;;1.20;99.90;;;;;;5009603;28;20030;-49
2022/11/06 02:37:38;;;;;;;10.95;5.25;;;1.20;99.90;;;;;;4977244;28;20029;-47
2022/11/06 02:40:08;;;;;;;6.72;4.15;;;1.20;99.90;;;;;;5009222;28;20085;-47
2022/11/06 02:42:39;;;;;;;12.68;5.78;;;1.20;99.90;;;;;;4976959;28;20048;-48
2022/11/06 02:45:08;;;;;;;8.98;4.18;;;1.20;99.90;;;;;;5009484;28;20029;-51
2022/11/06 02:47:35;;;;;;;11.32;5.97;;;1.20;99.90;;;;;;4992267;28;20049;-47
2022/11/06 02:50:10;;;;;;;11.23;4.68;;;1.30;99.90;;;;;;5009405;28;20033;-50
2022/11/06 02:53:03;;;;;;;11.27;5.60;;;1.30;99.90;;;;;;4975877;28;20045;-49
2022/11/06 02:55:48;;;;;;;14.57;5.10;;;1.30;99.90;;;;;;4983599;28;20129;-46
2022/11/06 02:58:23;;;;;;;13.93;5.57;;;1.40;99.90;;;;;;4987324;28;20125;-51
2022/11/06 03:00:58;;;;;;;11.15;5.63;;;1.40;99.90;;;;;;4970251;28;20031;-48
2022/11/06 03:03:27;;;;;;;12.47;5.43;;;1.50;99.90;;;;;;4990070;28;20042;-50
2022/11/06 03:06:13;;;;;;;7.88;4.55;;;1.50;99.90;;;;;;4984559;28;20030;-48
2022/11/06 03:08:53;;;;;;;10.38;5.38;;;1.50;99.90;;;;;;4981122;28;20061;-47
2022/11/06 03:11:34;;;;;;;11.77;4.80;;;1.50;99.90;;;;;;4970079;28;20051;-47
2022/11/06 03:14:25;;;;;;;10.30;5.53;;;1.50;99.90;;;;;;4983963;28;20125;-49
2022/11/06 03:16:58;;;;;;;10.80;4.72;;;1.50;99.90;;;;;;4969991;28;20043;-46
2022/11/06 03:19:31;;;;;;;10.73;5.72;;;1.60;99.90;;;;;;4987695;28;20403;-49
2022/11/06 03:22:25;;;;;;;8.32;4.32;;;1.60;99.90;;;;;;4969700;28;20030;-47
2022/11/06 03:24:57;;;;;;;15.27;6.60;;;1.60;99.90;;;;;;4969881;28;20034;-48
2022/11/06 03:27:47;;;;;;;11.68;5.40;;;1.60;99.90;;;;;;4973453;28;20433;-48
2022/11/06 03:30:13;;;;;;;16.48;6.20;;;1.70;99.90;;;;;;4997870;28;20034;-49
2022/11/06 03:32:47;;;;;;;11.80;5.22;;;1.80;99.90;;;;;;4992506;28;20106;-48
2022/11/06 03:35:28;;;;;;;15.23;6.03;;;1.80;99.90;;;;;;5008634;28;20026;-49
2022/11/06 03:38:04;;;;;;;12.65;5.50;;;1.90;99.90;;;;;;4981390;28;20160;-52
2022/11/06 03:40:34;;;;;;;15.73;5.53;;;1.90;99.90;;;;;;5008725;28;20113;-48
2022/11/06 03:43:03;;;;;;;13.35;5.88;;;2.00;99.90;;;;;;4986906;28;20042;-47
2022/11/06 03:45:31;;;;;;;11.05;6.90;;;2.00;99.90;;;;;;5008193;28;20038;-47
2022/11/06 03:48:03;;;;;;;9.52;5.35;;;2.00;99.90;;;;;;4994409;28;20109;-53
2022/11/06 03:50:37;;;;;;;10.02;5.07;;;2.00;99.90;;;;;;5008697;28;20029;-48
2022/11/06 03:53:18;;;;;;;9.75;4.90;;;2.00;99.90;;;;;;4983545;28;20029;-51
2022/11/06 03:55:50;;;;;;;11.40;5.10;;;2.10;99.90;;;;;;4969582;28;20027;-49
2022/11/06 03:58:23;;;;;;;10.23;5.07;;;2.10;99.90;;;;;;4987335;28;20042;-49
2022/11/06 04:00:51;;;;;;;7.78;4.57;;;2.00;99.90;;;;;;4988913;28;20030;-49
2022/11/06 04:03:27;;;;;;;10.07;6.00;;;2.00;99.90;;;;;;5006325;28;20241;-48
2022/11/06 04:05:55;;;;;;;;;;;1.90;99.90;;;;;;4989106;28;20482;-49
2022/11/06 04:14:04;;;;;;;10.00;4.88;;;1.80;99.90;;;;;;4983341;28;20100;-51
2022/11/06 04:16:37;;;;;;;8.13;4.53;;;1.80;99.90;;;;;;4969337;28;20779;-46
2022/11/06 04:19:11;;;;;;;10.38;5.25;;;1.80;99.90;;;;;;4990126;28;20037;-49
2022/11/06 04:21:58;;;;;;;11.82;5.75;;;1.80;99.90;;;;;;4969538;28;20035;-52
2022/11/06 04:27:34;;;;;;;9.13;4.13;;;1.80;99.90;;;;;;4971079;28;20089;-48
2022/11/06 04:30:28;;;;;;;14.50;5.80;;;1.90;99.90;;;;;;5007130;28;20033;-51
2022/11/06 04:33:04;;;;;;;15.30;6.47;;;1.90;99.90;;;;;;4973000;28;20522;-53
2022/11/06 04:35:59;;;;;;;12.23;5.33;;;2.00;99.90;;;;;;4992020;28;20430;-50
2022/11/06 04:38:39;;;;;;;16.30;6.03;;;2.00;99.90;;;;;;4992566;28;20288;-50
2022/11/06 04:41:35;;;;;;;13.60;5.72;;;2.10;99.90;;;;;;4992610;28;20049;-53
2022/11/06 04:44:07;;;;;;;10.15;5.38;;;2.20;99.90;;;;;;4987174;28;20092;-53
2022/11/06 04:46:39;;;;;;;9.68;6.18;;;2.20;99.90;;;;;;4972613;28;20513;-50
2022/11/06 04:49:07;;;;;;;12.38;5.78;;;2.20;99.90;;;;;;4987302;28;20513;-54
2022/11/06 04:51:36;;;;;;;13.45;7.18;;;2.30;99.90;;;;;;5010974;28;20065;-50
2022/11/06 04:54:03;;;;;;;12.10;6.25;;;2.30;99.90;;;;;;4989909;28;20477;-51
2022/11/06 04:56:31;;;;;;;13.85;6.35;;;2.30;99.90;;;;;;5010771;28;20036;-49
2022/11/06 04:58:56;;;;;;;12.85;6.45;;;2.40;99.90;;;;;;4990000;28;20434;-54
2022/11/06 05:01:22;;;;;;;11.45;4.80;;;2.50;99.90;;;;;;5010546;28;20538;-48
2022/11/06 05:03:47;;;;;;;15.63;6.97;;;2.50;99.90;;;;;;4990279;28;20034;-51
2022/11/06 05:06:13;;;;;;;11.30;5.75;;;2.50;99.90;;;;;;5007849;28;20057;-52
2022/11/06 05:08:38;;;;;;;10.52;6.40;;;2.50;99.90;;;;;;4990369;28;20038;-51
2022/11/06 05:11:05;;;;;;;10.77;6.65;;;2.50;99.90;;;;;;5010574;28;20580;-54
2022/11/06 05:13:30;;;;;;;14.90;6.93;;;2.60;99.90;;;;;;4990283;28;20037;-56
2022/11/06 05:15:57;;;;;;;17.08;7.35;;;2.60;99.90;;;;;;5010242;28;20029;-53
2022/11/06 05:18:24;;;;;;;15.07;7.57;;;2.60;99.90;;;;;;5000579;28;20042;-52
2022/11/06 05:22:56;;;;;;;16.55;6.45;;;2.70;99.90;;;;;;4991834;28;20034;-51
2022/11/06 05:23:40;;;;;;;13.13;6.70;;;2.70;99.90;;;;;;4982837;28;20026;-52
2022/11/06 05:26:07;;;;;;;13.68;6.70;;;2.70;99.90;;;;;;5010264;28;20030;-52
2022/11/06 05:28:33;;;;;;;11.25;6.68;;;2.80;99.90;;;;;;4989792;28;20034;-52
2022/11/06 05:30:58;;;;;;;12.95;7.22;;;2.80;99.90;;;;;;5009931;28;20030;-49
2022/11/06 05:33:24;;;;;;;17.67;7.05;;;2.80;99.90;;;;;;4989801;28;20628;-49
2022/11/06 05:35:50;;;;;;;14.23;6.90;;;2.80;99.90;;;;;;5009836;28;20729;-49
2022/11/06 05:38:17;;;;;;;20.30;7.13;;;2.80;99.90;;;;;;4999078;28;20050;-52
2022/11/06 05:40:43;;;;;;;12.85;7.22;;;2.80;99.90;;;;;;5010662;28;20124;-50
2022/11/06 05:43:08;;;;;;;17.15;6.75;;;2.80;99.90;;;;;;4998499;28;20113;-50
2022/11/06 05:45:34;;;;;;;12.80;5.90;;;2.80;99.90;;;;;;4990332;28;20030;-52
2022/11/06 05:47:59;;;;;;;13.85;6.72;;;2.80;99.90;;;;;;5000132;28;20034;-51
2022/11/06 05:50:25;;;;;;;14.13;7.20;;;2.80;99.90;;;;;;5009796;28;20608;-50
2022/11/06 05:52:51;;;;;;;12.68;6.45;;;2.80;99.90;;;;;;4989094;28;20058;-54
2022/11/06 05:55:16;;;;;;;14.57;7.22;;;2.80;99.90;;;;;;4990772;28;20034;-50
2022/11/06 05:57:42;;;;;;;12.80;6.78;;;2.80;99.90;;;;;;5007639;28;20092;-49
2022/11/06 06:00:09;;;;;;;11.55;6.53;;;2.80;99.90;;;;;;5010229;28;20029;-50
2022/11/06 06:02:35;;;;;;;11.60;5.97;;;2.80;99.90;;;;;;4993335;28;20489;-53
2022/11/06 06:05:01;;;;;;;12.00;6.88;;;2.80;99.90;;;;;;4999483;28;20044;-54
2022/11/06 06:07:26;;;;;;;15.57;6.88;;;2.80;99.90;;;;;;4990627;28;20538;-50
2022/11/06 06:09:52;;;;;;;12.38;5.78;;;2.70;99.90;;;;;;5010040;28;20104;-52
2022/11/06 06:12:17;;;;;;;13.82;6.45;;;2.70;99.90;;;;;;4988860;28;20034;-52
2022/11/06 06:14:43;;;;;;;13.05;6.43;;;2.70;99.90;;;;;;4990530;28;20022;-54
2022/11/06 06:17:08;;;;;;;10.45;5.65;;;2.70;99.90;;;;;;5005971;28;20033;-51
2022/11/06 06:19:34;;;;;;;13.30;6.10;;;2.60;99.90;;;;;;5009999;28;20033;-52
2022/11/06 06:21:59;;;;;;;12.50;7.00;;;2.60;99.90;;;;;;4987457;28;20030;-54
2022/11/06 06:24:25;;;;;;;13.10;7.25;;;2.60;99.90;;;;;;4989727;28;20026;-51
2022/11/06 06:26:50;;;;;;;13.35;6.43;;;2.60;99.90;;;;;;4991481;28;20026;-53
2022/11/06 06:29:16;;;;;;;13.20;6.78;;;2.60;99.90;;;;;;5009205;28;20665;-51
2022/11/06 06:31:41;;;;;;;12.93;5.90;;;2.70;99.90;;;;;;4988853;28;20160;-53
2022/11/06 06:34:07;;;;;;;14.93;6.63;;;2.70;99.90;;;;;;5006738;28;20099;-54
2022/11/06 06:36:32;;;;;;;12.07;6.10;;;2.70;99.90;;;;;;4993336;28;20041;-51
2022/11/06 06:38:58;;;;;;;15.10;7.18;;;2.70;99.90;;;;;;5000387;28;20077;-53
2022/11/06 06:41:23;;;;;;;12.82;6.45;;;2.70;99.90;;;;;;4995026;28;20035;-51
2022/11/06 06:43:49;;;;;;;14.43;6.85;;;2.70;99.90;;;;;;5008992;28;20034;-54
2022/11/06 06:46:15;;;;;;;16.33;7.05;;;2.70;99.90;;;;;;4988608;28;20100;-56
2022/11/06 06:48:40;;;;;;;12.95;6.20;;;2.70;99.90;;;;;;5007448;28;20692;-57
2022/11/06 06:51:07;;;;;;;9.50;5.38;;;2.70;99.90;;;;;;4995992;28;20791;-54
2022/11/06 06:53:33;;;;;;;15.82;7.18;;;2.80;99.90;;;;;;5009838;28;20124;-54
2022/11/06 06:55:59;;;;;;;13.55;5.95;;;2.90;99.90;;;;;;4988526;28;20129;-58
2022/11/06 06:58:25;;;;;;;20.13;7.05;;;2.90;99.90;;;;;;5009404;28;20034;-54
2022/11/06 07:00:51;;;;;;;12.68;6.90;;;2.90;99.90;;;;;;4990244;28;20575;-56
2022/11/06 07:03:16;;;;;;;15.98;6.63;;;3.00;99.90;;;;;;4992442;28;20501;-54
2022/11/06 07:05:42;;;;;;;11.93;6.85;;;3.00;99.90;;;;;;4991203;28;20454;-52
2022/11/06 07:08:08;;;;;;;16.00;8.35;;;3.10;99.90;;;;;;4995462;28;20538;-55
2022/11/06 07:10:33;;;;;;;12.65;6.07;;;3.10;99.90;;;;;;5008733;28;20065;-55
2022/11/06 07:13:03;;;;;;;14.77;7.50;;;3.30;99.90;;;;;;4997836;28;20640;-55
2022/11/06 07:15:28;;;;;;;16.15;7.10;;;3.40;99.90;;;;;;4989856;28;20114;-53
2022/11/06 07:17:54;;;;;;;21.67;8.93;;;3.50;99.90;;;;;;5006126;28;20466;-54
2022/11/06 07:20:20;;;;;;;14.05;7.15;;;3.60;99.90;;;;;;4990065;28;20034;-54
2022/11/06 07:22:45;;;;;;;18.13;8.68;;;3.70;99.90;;;;;;5006360;28;20022;-53
2022/11/06 07:25:10;;;;;;;11.70;7.35;;;3.80;99.90;;;;;;4989893;28;20070;-55
2022/11/06 07:27:36;;;;;;;16.95;8.25;;;3.80;99.90;;;;;;5004829;28;20414;-55
2022/11/06 07:30:03;;;;;;;15.23;8.57;;;4.00;99.90;;;;;;5008609;28;20025;-56
2022/11/06 07:32:29;;;;;;;13.95;7.95;;;4.10;99.90;;;;;;4993374;28;20084;-53
2022/11/06 07:34:54;;;;;;;19.52;9.38;;;4.20;99.90;;;;;;5008696;28;20030;-56
2022/11/06 07:37:20;;;;;;;12.10;7.32;;;4.30;99.90;;;;;;4992155;28;20061;-55
2022/11/06 07:39:46;;;;;;;13.55;7.88;;;4.40;99.90;;;;;;5008475;28;20452;-55
2022/11/06 07:42:11;;;;;;;16.52;8.18;;;4.50;99.90;;;;;;4991125;28;20484;-56
2022/11/06 07:44:37;;;;;;;14.88;9.10;;;4.60;99.90;;;;;;5008873;28;20030;-56
2022/11/06 07:47:02;;;;;;;20.00;9.23;;;4.80;99.90;;;;;;4990227;28;20031;-54
2022/11/06 07:49:28;;;;;;;21.00;10.40;;;4.90;99.90;;;;;;5008826;28;20387;-56
2022/11/06 07:51:53;;;;;;;15.32;8.40;;;5.10;99.90;;;;;;4988540;28;20035;-56
2022/11/06 07:54:19;;;;;;;15.70;9.23;;;5.20;99.90;;;;;;5008886;28;20505;-56
2022/11/06 07:56:44;;;;;;;14.30;8.55;;;5.40;99.90;;;;;;4984353;28;20050;-57
2022/11/06 07:59:10;;;;;;;17.10;8.80;;;5.50;99.90;;;;;;4992368;28;20922;-57
2022/11/06 08:01:35;;;;;;;19.85;10.77;;;5.80;99.90;;;;;;4988522;28;20037;-61
2022/11/06 08:04:00;;;;;;;19.35;9.38;;;6.00;99.90;;;;;;5004394;28;20437;-60
2022/11/06 08:06:26;;;;;;;13.43;8.40;;;6.20;99.90;;;;;;4982974;28;20042;-56
2022/11/06 08:08:51;;;;;;;16.15;8.98;;;6.40;99.90;;;;;;4987749;28;20628;-58
2022/11/06 08:11:17;;;;;;;12.15;7.50;;;6.60;99.90;;;;;;5010632;28;20116;-59
2022/11/06 08:13:42;;;;;;;12.05;8.07;;;6.80;99.90;;;;;;4998369;28;20073;-58
2022/11/06 08:16:10;;;;;;;17.65;8.75;;;7.00;99.90;;;;;;4991543;28;20490;-60
2022/11/06 08:18:36;;;;;;;13.77;8.32;;;7.30;99.90;;;;;;4995964;28;20700;-60
2022/11/06 08:21:03;;;;;;;14.90;8.60;;;7.40;99.90;;;;;;5011132;28;20026;-61
2022/11/06 08:23:29;;;;;;;13.77;7.05;;;7.60;99.90;;;;;;4996219;28;20057;-60
2022/11/06 08:25:58;;;;;;;10.80;6.95;;;7.80;99.90;;;;;;5011219;28;20065;-57
2022/11/06 08:28:25;;;;;;;12.85;6.97;;;7.90;99.90;;;;;;4993881;28;20095;-60
2022/11/06 08:30:51;;;;;;;10.05;6.63;;;8.10;99.90;;;;;;5009632;28;20014;-56
2022/11/06 08:33:17;;;;;;;13.93;8.05;;;8.30;99.90;;;;;;5008427;28;20025;-57
2022/11/06 08:35:42;;;;;;;11.27;7.25;;;8.40;99.90;;;;;;5009919;28;20030;-58
2022/11/06 08:38:08;;;;;;;9.07;5.65;;;8.50;99.90;;;;;;4992518;28;20040;-59
2022/11/06 08:40:38;;;;;;;7.60;5.82;;;8.70;99.90;;;;;;5010158;28;20111;-58
2022/11/06 08:43:06;;;;;;;8.73;6.18;;;8.90;99.90;;;;;;4975366;28;20041;-58
2022/11/06 08:45:34;;;;;;;10.23;6.57;;;9.00;99.90;;;;;;5010708;28;20108;-63
2022/11/06 08:48:02;;;;;;;11.57;6.32;;;9.10;99.90;;;;;;4990235;28;20038;-57
2022/11/06 08:50:28;;;;;;;12.20;6.43;;;9.30;99.90;;;;;;5010582;28;20018;-56
2022/11/06 08:52:59;;;;;;;9.88;6.65;;;9.40;99.90;;;;;;4990128;28;20034;-57
2022/11/06 08:55:25;;;;;;;8.57;6.15;;;9.60;99.90;;;;;;5010486;28;20418;-57
2022/11/06 08:57:54;;;;;;;9.82;7.18;;;9.70;99.90;;;;;;4990353;28;20034;-57
2022/11/06 09:00:19;;;;;;;9.65;6.30;;;9.80;99.90;;;;;;4999010;28;20030;-57
2022/11/06 09:02:44;;;;;;;9.30;6.13;;;9.80;99.90;;;;;;4988465;28;20038;-55
2022/11/06 09:05:10;;;;;;;10.68;5.97;;;9.90;99.90;;;;;;5000063;28;20030;-58
2022/11/06 09:07:35;;;;;;;9.07;5.90;;;10.00;99.90;;;;;;4990805;28;20609;-58
2022/11/06 09:10:01;;;;;;;7.65;5.78;;;10.10;99.90;;;;;;4989090;28;20085;-58
2022/11/06 09:12:26;;;;;;;9.45;6.50;;;10.20;99.90;;;;;;5009587;28;20044;-58
2022/11/06 09:14:52;;;;;;;9.40;5.80;;;10.20;99.90;;;;;;4988320;28;20041;-54
2022/11/06 09:17:22;;;;;;;8.80;6.15;;;10.30;99.90;;;;;;4987702;28;20181;-53
2022/11/06 09:19:48;;;;;;;9.23;6.70;;;10.40;99.90;;;;;;4990712;28;20508;-55
2022/11/06 09:22:13;;;;;;;9.38;6.35;;;10.40;99.90;;;;;;5009413;28;20037;-55
2022/11/06 09:24:39;;;;;;;11.80;6.60;;;10.30;99.90;;;;;;4989199;28;20026;-53
2022/11/06 09:27:04;;;;;;;9.88;6.20;;;10.30;99.90;;;;;;5009215;28;20030;-52
2022/11/06 09:29:30;;;;;;;8.88;5.60;;;10.30;99.90;;;;;;4987837;28;20695;-55
2022/11/06 09:31:55;;;;;;;12.45;6.38;;;10.30;99.90;;;;;;4990173;28;20109;-55
2022/11/06 09:34:21;;;;;;;10.55;6.07;;;10.40;99.90;;;;;;4993852;28;20046;-54
2022/11/06 09:36:46;;;;;;;7.53;6.22;;;10.40;99.90;;;;;;5008951;28;20386;-55
2022/11/06 09:39:12;;;;;;;8.23;5.88;;;10.40;99.90;;;;;;4988253;28;20061;-55
2022/11/06 09:41:44;;;;;;;7.15;5.45;;;10.50;99.90;;;;;;5008510;28;20073;-54
2022/11/06 09:44:36;;;;;;;9.13;5.78;;;10.50;99.90;;;;;;4987889;28;20093;-58
2022/11/06 09:47:09;;;;;;;8.02;5.30;;;10.60;99.90;;;;;;4968304;28;20027;-56
2022/11/06 09:49:40;;;;;;;7.28;4.90;;;10.60;99.90;;;;;;4989697;28;20030;-55
2022/11/06 09:52:27;;;;;;;8.45;5.60;;;10.70;99.90;;;;;;4984870;28;20065;-56
2022/11/06 09:55:01;;;;;;;;;;;10.60;99.90;;;;;;4973200;28;20053;-53
2022/11/06 09:57:41;;;;;;;7.28;5.32;;;10.60;99.90;;;;;;5009713;28;20431;-51
2022/11/06 10:00:10;;;;;;;7.70;5.40;;;10.60;99.90;;;;;;4991828;28;20062;-56
2022/11/06 10:02:46;;;;;;;8.45;5.28;;;10.60;99.90;;;;;;5006253;28;20022;-53
2022/11/06 10:05:24;;;;;;;8.70;5.60;;;10.70;99.90;;;;;;4969355;28;20498;-55
2022/11/06 10:07:53;;;;;;;9.50;5.25;;;10.60;99.90;;;;;;4989679;28;20738;-55
2022/11/06 10:10:25;;;;;;;6.35;4.90;;;10.60;99.90;;;;;;5006983;28;20091;-52
2022/11/06 10:13:06;;;;;;;7.47;5.45;;;10.60;99.90;;;;;;5009141;28;20071;-53
2022/11/06 10:16:05;;;;;;;7.60;5.13;;;10.60;99.90;;;;;;4982505;28;20075;-53
2022/11/06 10:18:53;;;;;;;11.02;5.95;;;10.50;99.90;;;;;;4970146;28;20043;-53
2022/11/06 10:21:18;;;;;;;7.03;5.25;;;10.40;99.90;;;;;;4981668;28;20801;-54
2022/11/06 10:23:58;;;;;;;9.85;5.38;;;10.40;99.90;;;;;;5008233;28;20038;-55
2022/11/06 10:26:38;;;;;;;7.18;4.80;;;10.40;99.90;;;;;;4983960;28;20101;-54
2022/11/06 10:29:27;;;;;;;8.57;5.00;;;10.40;99.90;;;;;;4971136;28;20039;-54
2022/11/06 10:31:55;;;;;;;11.43;5.07;;;10.30;99.90;;;;;;4986624;28;20073;-55
2022/11/06 10:34:38;;;;;;;8.48;5.72;;;10.40;99.90;;;;;;5007785;28;20033;-56
2022/11/06 10:37:26;;;;;;;10.05;4.93;;;10.40;99.90;;;;;;4981249;28;20502;-51
2022/11/06 10:39:54;;;;;;;7.78;4.55;;;10.50;99.90;;;;;;4984837;28;20034;-54
2022/11/06 10:42:29;;;;;;;7.22;4.88;;;10.50;99.90;;;;;;4985286;28;20034;-55
2022/11/06 10:44:57;;;;;;;9.32;4.93;;;10.50;99.90;;;;;;4990647;28;20065;-54
2022/11/06 10:47:35;;;;;;;6.82;4.80;;;10.50;99.90;;;;;;4987281;28;20110;-56
2022/11/06 10:50:03;;;;;;;7.15;4.60;;;10.50;99.90;;;;;;4988202;28;20030;-53
2022/11/06 10:52:37;;;;;;;6.93;4.63;;;10.60;99.90;;;;;;4993911;28;20101;-55
2022/11/06 10:55:18;;;;;;;10.63;4.60;;;10.50;99.90;;;;;;4986665;28;20069;-54
2022/11/06 10:57:52;;;;;;;8.15;4.13;;;10.50;99.90;;;;;;4991480;28;20041;-53
2022/11/06 11:00:18;;;;;;;5.43;3.67;;;10.50;99.90;;;;;;4974902;28;20072;-52
2022/11/06 11:02:48;;;;;;;5.78;3.63;;;10.60;99.90;;;;;;4997794;28;20506;-57
2022/11/06 11:05:16;;;;;;;6.95;4.13;;;10.60;99.90;;;;;;4999814;28;20032;-53
2022/11/06 11:07:45;;;;;;;6.45;3.60;;;10.70;99.90;;;;;;4993856;28;20491;-56
2022/11/06 11:10:22;;;;;;;6.00;2.90;;;10.70;99.90;;;;;;4980632;28;20518;-58
2022/11/06 11:12:49;;;;;;;6.75;3.95;;;10.70;99.90;;;;;;4999332;28;20026;-54
2022/11/06 11:15:18;;;;;;;6.03;3.60;;;10.70;99.90;;;;;;4992817;28;20026;-54
2022/11/06 11:18:11;;;;;;;5.65;3.80;;;10.80;99.90;;;;;;5008077;28;20041;-56
2022/11/06 11:20:38;;;;;;;7.63;3.17;;;10.80;99.90;;;;;;4981980;28;20037;-56
2022/11/06 11:23:13;;;;;;;5.75;3.22;;;10.90;99.90;;;;;;4989834;28;20029;-53
2022/11/06 11:25:42;;;;;;;5.45;3.47;;;10.90;99.90;;;;;;4994905;28;20030;-56
2022/11/06 11:28:19;;;;;;;3.38;3.08;;;10.90;99.90;;;;;;4989493;28;20513;-56
2022/11/06 11:30:51;;;;;;;6.88;3.15;;;10.90;99.90;;;;;;4969042;28;20159;-55
2022/11/06 11:33:20;;;;;;;5.05;3.63;;;11.00;99.90;;;;;;5008894;28;20367;-56
2022/11/06 11:35:48;;;;;;;3.55;2.78;;;11.00;99.90;;;;;;4987926;28;20042;-55
2022/11/06 11:38:15;;;;;;;6.35;3.67;;;11.00;99.90;;;;;;5006313;28;20097;-55
2022/11/06 11:40:41;;;;;;;6.07;4.00;;;11.10;99.50;;;;;;4987261;28;20026;-56
2022/11/06 11:43:23;;;;;;;4.65;3.05;;;11.10;99.90;;;;;;5010241;28;20144;-56
2022/11/06 11:46:00;;;;;;;4.30;2.35;;;11.10;99.90;;;;;;4992344;28;20081;-54
2022/11/06 11:48:26;;;;;;;5.32;2.85;;;11.10;99.90;;;;;;5012904;28;20073;-57
2022/11/06 11:50:51;;;;;;;5.07;2.90;;;11.10;99.90;;;;;;4992092;28;20120;-55
2022/11/06 11:53:19;;;;;;;3.38;2.72;;;11.10;99.90;;;;;;4992856;28;20851;-53
2022/11/06 11:55:48;;;;;;;6.22;2.97;;;11.10;99.90;;;;;;5009944;28;20494;-56
2022/11/06 11:58:27;;;;;;;5.80;2.80;;;11.10;99.90;;;;;;4998191;28;20049;-54
2022/11/06 12:00:57;;;;;;;3.85;2.92;;;11.10;99.90;;;;;;5010534;28;20080;-56
2022/11/06 12:03:32;;;;;;;4.47;3.00;;;11.10;99.90;;;;;;5012762;28;20080;-54
2022/11/06 12:06:23;;;;;;;5.35;2.58;;;11.20;99.90;;;;;;4975670;28;20027;-55
2022/11/06 12:08:53;;;;;;;6.10;2.90;;;11.20;98.20;;;;;;5009553;28;20052;-55
2022/11/06 12:11:23;;;;;;;8.02;2.95;;;11.20;99.90;;;;;;4996182;28;20053;-56
2022/11/06 12:14:31;;;;;;;5.65;3.30;;;11.30;98.20;;;;;;5012438;28;20034;-56
2022/11/06 12:17:03;;;;;;;4.45;2.53;;;11.30;97.10;;;;;;4959720;28;20031;-55
2022/11/06 12:19:32;;;;;;;6.30;2.58;;;11.30;98.60;;;;;;4950996;29;20703;-55
2022/11/06 12:22:03;;;;;;;5.68;2.85;;;11.30;99.90;;;;;;4991111;28;20042;-57
2022/11/06 12:24:47;;;;;;;4.30;2.72;;;11.30;99.70;;;;;;4973353;28;20085;-53
2022/11/06 12:27:17;;;;;;;6.63;2.50;;;11.30;94.80;;;;;;4995672;28;20193;-55
2022/11/06 12:29:48;;;;;;;6.03;2.70;;;11.30;98.30;;;;;;4995870;28;20025;-55
2022/11/06 12:32:39;;;;;;;3.45;2.58;;;11.30;98.00;;;;;;4972911;28;20066;-54
2022/11/06 12:35:12;;;;;;;7.32;2.70;;;11.30;94.20;;;;;;4972852;28;20495;-55
2022/11/06 12:37:56;;;;;;;7.57;3.45;;;11.40;95.50;;;;;;4989087;28;20034;-57
2022/11/06 12:40:32;;;;;;;3.83;2.63;;;11.40;96.10;;;;;;5012176;28;20037;-50
2022/11/06 12:43:04;;;;;;;;;;;11.40;97.30;;;;;;4991992;28;20034;-55
2022/11/06 12:46:01;;;;;;;5.50;3.00;;;11.40;95.70;;;;;;4992444;28;19921;-57
2022/11/06 12:48:46;;;;;;;6.80;3.38;;;11.40;96.10;;;;;;4974910;28;20043;-55
2022/11/06 12:51:20;;;;;;;4.95;3.30;;;11.40;95.30;;;;;;5007200;28;20027;-53
2022/11/06 12:53:56;;;;;;;6.57;2.70;;;11.40;94.80;;;;;;4982870;28;20375;-54
2022/11/06 12:56:37;;;;;;;9.52;3.35;;;11.40;95.20;;;;;;4976307;28;20043;-56
2022/11/06 12:59:17;;;;;;;5.45;3.28;;;11.40;94.20;;;;;;4981269;28;20042;-55
2022/11/06 13:02:16;;;;;;;9.63;3.25;;;11.40;94.60;;;;;;4978930;28;20062;-55
2022/11/06 13:05:02;;;;;;;5.93;2.88;;;11.50;94.70;;;;;;4991554;28;20449;-54
2022/11/06 13:07:51;;;;;;;4.32;2.22;;;11.50;94.80;;;;;;4991398;28;20049;-54
2022/11/06 13:10:41;;;;;;;4.88;2.35;;;11.40;92.90;;;;;;4987696;28;20412;-53
2022/11/06 13:13:19;;;;;;;4.85;2.40;;;11.50;94.50;;;;;;4989828;28;20034;-56
2022/11/06 13:15:56;;;;;;;3.53;2.30;;;11.40;94.40;;;;;;4998525;28;20497;-49
2022/11/06 13:18:41;;;;;;;4.80;2.17;;;11.40;95.10;;;;;;4989608;28;20038;-48